createdAt,value
2022-08-17T00:00:35.125Z,15.9
2022-08-17T00:03:13.519Z,15.8
2022-08-17T00:06:09.191Z,15.7
2022-08-17T00:09:09.286Z,15.6
2022-08-17T00:12:52.961Z,15.5
2022-08-17T00:15:12.850Z,15.4
2022-08-17T00:21:15.859Z,15.1
2022-08-17T00:24:09.169Z,15.1
2022-08-17T00:27:09.237Z,15.1
2022-08-17T00:30:09.249Z,15.2
2022-08-17T00:33:26.163Z,15.1
2022-08-17T00:36:09.197Z,15.1
2022-08-17T00:39:09.216Z,15.1
2022-08-17T00:42:09.211Z,15.1
2022-08-17T00:45:09.210Z,15.1
2022-08-17T00:48:32.275Z,15
2022-08-17T00:51:09.208Z,15
2022-08-17T00:54:09.209Z,14.9
2022-08-17T00:57:09.692Z,14.9
2022-08-17T01:00:12.318Z,15
2022-08-17T01:03:09.233Z,15.1
2022-08-17T01:06:10.449Z,15.1
2022-08-17T01:09:09.249Z,15.1
2022-08-17T01:12:10.965Z,15.2
2022-08-17T01:15:09.194Z,15.1
2022-08-17T01:18:10.703Z,14.9
2022-08-17T01:21:09.261Z,14.8
2022-08-17T01:24:09.190Z,14.7
2022-08-17T01:27:20.732Z,14.6
2022-08-17T01:33:09.251Z,14.4
2022-08-17T01:36:09.196Z,14.4
2022-08-17T01:39:09.155Z,14.3
2022-08-17T01:42:09.240Z,14.2
2022-08-17T01:45:09.238Z,14.1
2022-08-17T01:48:09.255Z,14.2
2022-08-17T01:51:09.229Z,14.3
2022-08-17T01:54:09.206Z,14.3
2022-08-17T01:57:09.212Z,14.1
2022-08-17T02:00:09.315Z,14.1
2022-08-17T02:03:09.208Z,14
2022-08-17T02:06:45.510Z,13.9
2022-08-17T02:09:26.021Z,13.9
2022-08-17T02:12:48.535Z,13.9
2022-08-17T02:15:09.312Z,14
2022-08-17T02:18:09.226Z,14.1
2022-08-17T02:21:09.253Z,14.2
2022-08-17T02:24:09.295Z,14.1
2022-08-17T02:27:09.238Z,14
2022-08-17T02:33:16.196Z,13.8
2022-08-17T02:36:09.187Z,13.8
2022-08-17T02:39:09.236Z,13.7
2022-08-17T02:42:09.210Z,13.8
2022-08-17T02:45:09.252Z,14
2022-08-17T02:48:09.197Z,14
2022-08-17T02:51:10.316Z,13.9
2022-08-17T02:54:50.858Z,13.9
2022-08-17T02:57:09.232Z,13.9
2022-08-17T03:00:09.260Z,13.9
2022-08-17T03:03:09.201Z,13.8
2022-08-17T03:06:09.214Z,13.7
2022-08-17T03:09:09.170Z,13.8
2022-08-17T03:12:09.219Z,13.7
2022-08-17T03:15:09.191Z,13.6
2022-08-17T03:18:18.900Z,13.5
2022-08-17T03:21:09.185Z,13.4
2022-08-17T03:24:20.180Z,13.4
2022-08-17T03:27:09.189Z,13.6
2022-08-17T03:30:09.273Z,13.6
2022-08-17T03:33:09.209Z,13.7
2022-08-17T03:36:09.197Z,13.7
2022-08-17T03:39:09.159Z,13.8
2022-08-17T03:42:09.976Z,13.8
2022-08-17T03:45:09.203Z,13.7
2022-08-17T03:48:09.185Z,13.6
2022-08-17T03:51:14.809Z,13.5
2022-08-17T03:54:14.104Z,13.4
2022-08-17T03:57:09.226Z,13.3
2022-08-17T04:00:09.362Z,13.3
2022-08-17T04:03:11.237Z,13.5
2022-08-17T04:06:09.230Z,13.7
2022-08-17T04:09:09.246Z,13.6
2022-08-17T04:12:13.572Z,13.4
2022-08-17T04:15:09.253Z,13.4
2022-08-17T04:18:13.284Z,13.4
2022-08-17T04:21:09.216Z,13.3
2022-08-17T04:24:09.251Z,13.5
2022-08-17T04:27:09.296Z,13.4
2022-08-17T04:30:09.273Z,13.4
2022-08-17T04:33:20.554Z,13.4
2022-08-17T04:36:09.296Z,13.4
2022-08-17T04:39:09.225Z,13.4
2022-08-17T04:42:09.214Z,13.4
2022-08-17T04:45:09.413Z,13.6
2022-08-17T04:48:09.299Z,13.8
2022-08-17T04:51:09.326Z,13.9
2022-08-17T04:54:09.310Z,14.2
2022-08-17T04:57:09.257Z,14.3
2022-08-17T05:00:10.332Z,14.4
2022-08-17T05:03:09.318Z,14.6
2022-08-17T05:06:09.347Z,14.8
2022-08-17T05:09:09.308Z,15.1
2022-08-17T05:12:09.369Z,15.3
2022-08-17T05:15:09.217Z,15.4
2022-08-17T05:18:09.280Z,15.6
2022-08-17T05:21:09.268Z,15.8
2022-08-17T05:24:55.560Z,15.9
2022-08-17T05:27:25.650Z,16.1
2022-08-17T05:30:09.497Z,16.3
2022-08-17T05:33:09.232Z,16.5
2022-08-17T05:36:09.229Z,16.8
2022-08-17T05:39:09.262Z,17.1
2022-08-17T05:42:09.207Z,17.6
2022-08-17T05:45:09.273Z,18.1
2022-08-17T05:48:09.242Z,18.4
2022-08-17T05:51:09.398Z,18.9
2022-08-17T05:54:09.305Z,19.3
2022-08-17T05:57:09.222Z,19.4
2022-08-17T06:00:09.919Z,19.9
2022-08-17T06:03:09.260Z,20.6
2022-08-17T06:06:09.204Z,21.4
2022-08-17T06:09:09.281Z,22.2
2022-08-17T06:12:19.046Z,22.6
2022-08-17T06:15:09.278Z,22.8
2022-08-17T06:18:09.295Z,23.3
2022-08-17T06:21:09.644Z,23.6
2022-08-17T06:24:09.289Z,23.8
2022-08-17T06:27:09.252Z,24.2
2022-08-17T06:30:09.316Z,24.6
2022-08-17T06:33:09.322Z,25.6
2022-08-17T06:36:20.602Z,25.7
2022-08-17T06:39:09.268Z,25.9
2022-08-17T06:42:09.323Z,26
2022-08-17T06:45:09.293Z,26.4
2022-08-17T06:48:09.337Z,26.8
2022-08-17T06:51:09.249Z,27.1
2022-08-17T06:54:09.322Z,27.1
2022-08-17T06:57:09.284Z,27.6
2022-08-17T07:00:13.250Z,28.4
2022-08-17T07:03:10.620Z,28.4
2022-08-17T07:06:09.362Z,28.8
2022-08-17T07:09:09.283Z,29
2022-08-17T07:12:09.278Z,29.6
2022-08-17T07:15:09.294Z,30.1
2022-08-17T07:18:10.287Z,30.1
2022-08-17T07:21:10.335Z,30.4
2022-08-17T07:24:09.280Z,29.5
2022-08-17T07:27:09.220Z,29.1
2022-08-17T07:30:15.274Z,28.3
2022-08-17T07:33:14.643Z,28.3
2022-08-17T07:36:09.291Z,28.7
2022-08-17T07:39:09.269Z,29.3
2022-08-17T07:42:09.252Z,30.2
2022-08-17T07:45:09.291Z,30.8
2022-08-17T07:48:09.560Z,31.4
2022-08-17T07:51:09.345Z,31.9
2022-08-17T07:54:23.416Z,31.6
2022-08-17T07:57:09.217Z,31.9
2022-08-17T08:00:18.678Z,31.9
2022-08-17T08:03:10.735Z,31.1
2022-08-17T08:06:09.228Z,30.7
2022-08-17T08:09:09.275Z,31
2022-08-17T08:12:18.162Z,31.9
2022-08-17T08:15:09.266Z,32.2
2022-08-17T08:18:09.269Z,32.1
2022-08-17T08:21:09.243Z,31.4
2022-08-17T08:24:09.388Z,30.8
2022-08-17T08:27:09.336Z,30.6
2022-08-17T08:30:09.457Z,31.1
2022-08-17T08:33:09.277Z,31.8
2022-08-17T08:36:09.265Z,32.1
2022-08-17T08:39:09.203Z,33.2
2022-08-17T08:42:09.297Z,33.7
2022-08-17T08:45:14.252Z,33.9
2022-08-17T08:51:10.767Z,33.8
2022-08-17T08:54:09.277Z,33.2
2022-08-17T08:57:40.775Z,32.4
2022-08-17T09:00:09.447Z,31.8
2022-08-17T09:03:09.231Z,31.4
2022-08-17T09:06:41.897Z,31.5
2022-08-17T09:09:09.409Z,31.8
2022-08-17T09:12:12.701Z,31.9
2022-08-17T09:15:15.460Z,32.1
2022-08-17T09:21:09.239Z,31.7
2022-08-17T09:24:09.253Z,31.3
2022-08-17T09:27:09.274Z,31.8
2022-08-17T09:30:09.369Z,32.1
2022-08-17T09:33:10.488Z,32.7
2022-08-17T09:36:09.324Z,32.8
2022-08-17T09:39:09.272Z,32.7
2022-08-17T09:42:09.352Z,32.6
2022-08-17T09:45:09.212Z,32.2
2022-08-17T09:48:09.301Z,32.2
2022-08-17T09:51:15.269Z,32.7
2022-08-17T09:54:48.624Z,32.7
2022-08-17T09:57:39.192Z,32.2
2022-08-17T10:00:10.682Z,32.6
2022-08-17T10:03:09.333Z,32.8
2022-08-17T10:06:13.417Z,33.2
2022-08-17T10:09:09.245Z,34.1
2022-08-17T10:12:11.418Z,34.1
2022-08-17T10:15:19.677Z,34.2
2022-08-17T10:18:09.272Z,34.4
2022-08-17T10:21:09.231Z,34
2022-08-17T10:24:10.158Z,34.4
2022-08-17T10:27:09.364Z,34.5
2022-08-17T10:30:09.578Z,35.1
2022-08-17T10:33:09.219Z,34.9
2022-08-17T10:36:15.215Z,34.2
2022-08-17T10:39:09.288Z,33.6
2022-08-17T10:42:09.452Z,33.8
2022-08-17T10:45:09.262Z,34.3
2022-08-17T10:48:16.549Z,35.2
2022-08-17T10:51:09.234Z,35.4
2022-08-17T10:54:09.336Z,35.2
2022-08-17T10:57:09.252Z,35.4
2022-08-17T11:00:09.358Z,35.5
2022-08-17T11:03:09.399Z,35.5
2022-08-17T11:06:09.588Z,36.1
2022-08-17T11:09:09.974Z,36.1
2022-08-17T11:12:09.296Z,36.1
2022-08-17T11:15:10.286Z,36.1
2022-08-17T11:18:09.249Z,35.3
2022-08-17T11:21:10.295Z,34.7
2022-08-17T11:24:09.323Z,34.9
2022-08-17T11:27:14.567Z,34.9
2022-08-17T11:30:12.138Z,35.4
2022-08-17T11:33:16.530Z,35.1
2022-08-17T11:36:09.284Z,34.8
2022-08-17T11:39:13.900Z,34.9
2022-08-17T11:42:09.305Z,35.2
2022-08-17T11:45:09.333Z,35
2022-08-17T11:48:38.131Z,34.1
2022-08-17T11:51:09.198Z,33.5
2022-08-17T11:54:42.376Z,33.9
2022-08-17T11:57:09.262Z,34.6
2022-08-17T12:00:09.525Z,34.7
2022-08-17T12:03:09.460Z,35.2
2022-08-17T12:06:09.289Z,34.9
2022-08-17T12:09:09.274Z,34.9
2022-08-17T12:12:23.141Z,35.7
2022-08-17T12:15:20.767Z,35.6
2022-08-17T12:18:09.266Z,35.8
2022-08-17T12:21:09.247Z,34.7
2022-08-17T12:24:09.262Z,35
2022-08-17T12:27:09.237Z,35
2022-08-17T12:30:09.488Z,34.6
2022-08-17T12:33:09.185Z,34.3
2022-08-17T12:36:09.426Z,35.1
2022-08-17T12:39:36.204Z,35.4
2022-08-17T12:42:15.833Z,35
2022-08-17T12:45:09.342Z,34.2
2022-08-17T12:48:09.298Z,34.1
2022-08-17T12:51:09.223Z,33.6
2022-08-17T12:54:09.252Z,32.8
2022-08-17T12:57:09.232Z,32.6
2022-08-17T13:00:09.418Z,32.6
2022-08-17T13:03:09.213Z,33.2
2022-08-17T13:06:09.287Z,33.9
2022-08-17T13:09:09.287Z,35.1
2022-08-17T13:12:11.955Z,35.6
2022-08-17T13:15:09.270Z,34.9
2022-08-17T13:18:09.810Z,33.2
2022-08-17T13:21:09.243Z,32.6
2022-08-17T13:24:09.272Z,32.7
2022-08-17T13:27:16.291Z,33.5
2022-08-17T13:30:09.375Z,33.9
2022-08-17T13:33:25.402Z,34.5
2022-08-17T13:36:19.455Z,34.6
2022-08-17T13:39:09.259Z,34.4
2022-08-17T13:42:12.260Z,34.1
2022-08-17T13:45:44.669Z,33.4
2022-08-17T13:48:10.934Z,32.9
2022-08-17T13:51:09.262Z,32.5
2022-08-17T13:54:09.307Z,32.6
2022-08-17T13:57:09.231Z,32.5
2022-08-17T14:00:09.341Z,32.2
2022-08-17T14:03:09.302Z,31.9
2022-08-17T14:06:09.262Z,31.7
2022-08-17T14:09:09.227Z,31.5
2022-08-17T14:12:09.404Z,31.2
2022-08-17T14:15:09.369Z,31.1
2022-08-17T14:18:09.320Z,30.9
2022-08-17T14:21:09.226Z,30.9
2022-08-17T14:24:09.251Z,30.9
2022-08-17T14:27:09.322Z,31.1
2022-08-17T14:30:09.574Z,31.1
2022-08-17T14:33:09.956Z,31.1
2022-08-17T14:36:09.243Z,31.1
2022-08-17T14:39:09.353Z,31.2
2022-08-17T14:42:09.394Z,31.4
2022-08-17T14:45:33.462Z,31.4
2022-08-17T14:48:09.266Z,31.1
2022-08-17T14:51:09.195Z,30.8
2022-08-17T14:54:09.269Z,30.6
2022-08-17T14:57:42.129Z,30.4
2022-08-17T15:00:09.323Z,30.3
2022-08-17T15:03:09.173Z,30.3
2022-08-17T15:06:09.879Z,30.2
2022-08-17T15:09:09.224Z,30.2
2022-08-17T15:12:09.318Z,30.1
2022-08-17T15:15:11.468Z,30.1
2022-08-17T15:18:10.481Z,30
2022-08-17T15:21:09.235Z,29.9
2022-08-17T15:24:09.259Z,29.8
2022-08-17T15:27:09.213Z,29.3
2022-08-17T15:30:11.575Z,28.9
2022-08-17T15:33:10.295Z,28.6
2022-08-17T15:36:09.285Z,28.3
2022-08-17T15:39:09.247Z,28.1
2022-08-17T15:42:09.305Z,28.1
2022-08-17T15:45:09.230Z,28.1
2022-08-17T15:48:10.044Z,28.2
2022-08-17T15:51:09.257Z,28.3
2022-08-17T15:54:38.173Z,28.3
2022-08-17T15:57:09.209Z,28.4
2022-08-17T16:00:09.602Z,28.6
2022-08-17T16:06:11.881Z,28.8
2022-08-17T16:09:09.298Z,29.3
2022-08-17T16:12:09.642Z,29.8
2022-08-17T16:15:09.297Z,30.3
2022-08-17T16:18:09.510Z,30.6
2022-08-17T16:21:09.296Z,30.9
2022-08-17T16:24:15.749Z,30.8
2022-08-17T16:27:18.073Z,30.8
2022-08-17T16:30:12.494Z,30.8
2022-08-17T16:33:09.257Z,30.8
2022-08-17T16:36:09.381Z,30.7
2022-08-17T16:39:09.508Z,30.3
2022-08-17T16:42:09.316Z,30.1
2022-08-17T16:45:09.389Z,29.7
2022-08-17T16:48:09.311Z,29.3
2022-08-17T16:51:13.247Z,29.1
2022-08-17T16:54:09.258Z,28.7
2022-08-17T16:57:09.580Z,28.6
2022-08-17T17:00:09.404Z,28.4
2022-08-17T17:03:26.153Z,28.2
2022-08-17T17:06:13.531Z,27.9
2022-08-17T17:09:09.263Z,27.8
2022-08-17T17:12:09.277Z,27.6
2022-08-17T17:15:09.252Z,27.5
2022-08-17T17:18:15.860Z,27.5
2022-08-17T17:21:09.293Z,27.4
2022-08-17T17:24:09.248Z,27.4
2022-08-17T17:27:13.815Z,27.4
2022-08-17T17:30:09.347Z,27.4
2022-08-17T17:33:09.346Z,27.4
2022-08-17T17:36:09.295Z,27.6
2022-08-17T17:39:09.233Z,27.6
2022-08-17T17:42:09.280Z,27.4
2022-08-17T17:45:09.288Z,27.4
2022-08-17T17:48:09.229Z,27.2
2022-08-17T17:51:09.325Z,27.1
2022-08-17T17:54:09.314Z,26.8
2022-08-17T17:57:09.232Z,26.5
2022-08-17T18:00:09.385Z,26.2
2022-08-17T18:03:09.260Z,26.1
2022-08-17T18:06:14.982Z,25.8
2022-08-17T18:09:12.420Z,25.6
2022-08-17T18:12:11.352Z,25.3
2022-08-17T18:15:09.961Z,25
2022-08-17T18:18:09.235Z,24.8
2022-08-17T18:21:09.265Z,24.6
2022-08-17T18:24:09.343Z,24.4
2022-08-17T18:27:15.174Z,24.2
2022-08-17T18:30:17.241Z,24.1
2022-08-17T18:33:09.859Z,23.8
2022-08-17T18:36:10.331Z,23.6
2022-08-17T18:39:09.297Z,23.3
2022-08-17T18:42:15.291Z,23.3
2022-08-17T18:45:10.090Z,23.1
2022-08-17T18:48:09.205Z,22.9
2022-08-17T18:51:10.303Z,22.7
2022-08-17T18:54:09.186Z,22.6
2022-08-17T18:57:09.249Z,22.3
2022-08-17T19:00:13.632Z,22.1
2022-08-17T19:03:14.396Z,22.1
2022-08-17T19:06:11.188Z,21.9
2022-08-17T19:09:09.201Z,21.8
2022-08-17T19:12:09.262Z,21.5
2022-08-17T19:15:09.215Z,21.2
2022-08-17T19:18:15.431Z,21.1
2022-08-17T19:21:09.251Z,21
2022-08-17T19:24:09.224Z,21
2022-08-17T19:27:16.003Z,21.1
2022-08-17T19:30:16.983Z,21
2022-08-17T19:33:13.849Z,20.9
2022-08-17T19:36:09.215Z,20.7
2022-08-17T19:39:09.148Z,20.6
2022-08-17T19:42:09.192Z,20.3
2022-08-17T19:45:09.226Z,20.1
2022-08-17T19:48:13.029Z,20
2022-08-17T19:51:09.198Z,20
2022-08-17T19:54:15.997Z,20
2022-08-17T19:57:10.615Z,19.9
2022-08-17T20:00:09.320Z,19.9
2022-08-17T20:03:20.678Z,19.8
2022-08-17T20:06:22.354Z,19.8
2022-08-17T20:09:15.416Z,19.6
2022-08-17T20:12:09.255Z,19.4
2022-08-17T20:15:09.218Z,19.3
2022-08-17T20:18:09.235Z,19.1
2022-08-17T20:21:22.360Z,19
2022-08-17T20:24:10.777Z,18.9
2022-08-17T20:27:09.236Z,18.8
2022-08-17T20:30:09.229Z,18.7
2022-08-17T20:33:12.506Z,18.6
2022-08-17T20:36:09.186Z,18.6
2022-08-17T20:39:09.160Z,18.6
2022-08-17T20:42:11.518Z,18.5
2022-08-17T20:45:09.466Z,18.4
2022-08-17T20:48:48.839Z,18
2022-08-17T20:51:09.230Z,17.8
2022-08-17T20:54:09.232Z,17.6
2022-08-17T20:57:18.633Z,17.4
2022-08-17T21:00:09.263Z,17.4
2022-08-17T21:03:09.359Z,17.4
2022-08-17T21:06:22.325Z,17.4
2022-08-17T21:09:09.213Z,17.5
2022-08-17T21:12:14.099Z,17.5
2022-08-17T21:15:09.296Z,17.6
2022-08-17T21:18:09.826Z,17.5
2022-08-17T21:21:09.632Z,17.4
2022-08-17T21:24:09.277Z,17.4
2022-08-17T21:27:09.367Z,17.4
2022-08-17T21:30:14.570Z,17.2
2022-08-17T21:33:12.257Z,17.2
2022-08-17T21:36:11.436Z,17.4
2022-08-17T21:39:09.161Z,17.3
2022-08-17T21:42:09.239Z,17.4
2022-08-17T21:45:09.291Z,17.3
2022-08-17T21:48:09.303Z,17.2
2022-08-17T21:51:09.182Z,17.1
2022-08-17T21:54:12.671Z,17.2
2022-08-17T21:57:09.228Z,16.9
2022-08-17T22:00:09.972Z,16.8
2022-08-17T22:03:10.529Z,16.7
2022-08-17T22:06:09.177Z,16.6
2022-08-17T22:09:09.270Z,16.5
2022-08-17T22:12:09.245Z,16.3
2022-08-17T22:15:09.222Z,16.3
2022-08-17T22:18:09.189Z,16.1
2022-08-17T22:21:09.163Z,16.2
2022-08-17T22:24:09.272Z,16.1
2022-08-17T22:27:09.225Z,16.1
2022-08-17T22:30:09.207Z,16.1
2022-08-17T22:33:09.180Z,15.9
2022-08-17T22:36:14.974Z,15.8
2022-08-17T22:39:09.212Z,15.8
2022-08-17T22:42:09.206Z,15.8
2022-08-17T22:45:09.189Z,15.8
2022-08-17T22:48:09.221Z,15.9
2022-08-17T22:51:18.698Z,15.9
2022-08-17T22:54:09.181Z,15.8
2022-08-17T22:57:09.945Z,15.6
2022-08-17T23:00:09.254Z,15.6
2022-08-17T23:03:09.643Z,15.6
2022-08-17T23:06:09.189Z,15.6
2022-08-17T23:09:09.240Z,15.6
2022-08-17T23:12:09.302Z,15.6
2022-08-17T23:15:09.339Z,15.5
2022-08-17T23:18:09.189Z,15.4
2022-08-17T23:21:25.736Z,15.3
2022-08-17T23:24:12.237Z,15.3
2022-08-17T23:27:09.171Z,15.1
2022-08-17T23:30:09.186Z,15.1
2022-08-17T23:33:09.233Z,15.2
2022-08-17T23:36:09.248Z,15.2
2022-08-17T23:39:09.201Z,15.2
2022-08-17T23:42:09.167Z,15.2
2022-08-17T23:45:09.201Z,15.3
2022-08-17T23:48:09.280Z,15.3
2022-08-17T23:51:12.777Z,15.3
2022-08-17T23:54:16.965Z,15.3
2022-08-17T23:57:09.236Z,15.2
